Time;durP1;ratioP1;P1;durP2;ratioP2;P2;SDS_P1;SDS_P2;PMS_P1;PMS_P2;Temp;Humidity;BMP_temperature;BMP_pressure;BME280_temperature;BME280_humidity;BME280_pressure;Samples;Min_cycle;Max_cycle;Signal;HPM_P1;HPM_P2
2023/10/21 00:01:05;;;;;;;25.50;12.05;;;;;;;9.96;100.00;98264.25;5102108;28;20028;-83
2023/10/21 00:03:30;;;;;;;27.30;12.07;;;;;;;9.92;100.00;98273.19;5102554;28;20050;-83
2023/10/21 00:05:56;;;;;;;27.27;11.90;;;;;;;9.94;100.00;98272.22;5085042;28;20130;-82
2023/10/21 00:08:21;;;;;;;25.58;11.98;;;;;;;9.96;100.00;98274.81;5101344;28;20070;-82
2023/10/21 00:10:47;;;;;;;26.67;11.80;;;;;;;9.97;100.00;98279.16;5104239;28;20031;-83
2023/10/21 00:13:12;;;;;;;26.13;11.73;;;;;;;9.94;100.00;98279.28;5096728;28;20064;-82
2023/10/21 00:15:39;;;;;;;26.67;11.48;;;;;;;9.96;100.00;98277.47;5103626;28;20062;-82
2023/10/21 00:18:05;;;;;;;27.38;12.00;;;;;;;9.98;100.00;98283.53;5104879;28;20051;-82
2023/10/21 00:20:30;;;;;;;26.85;12.23;;;;;;;9.99;100.00;98290.56;5106621;28;20050;-83
2023/10/21 00:22:55;;;;;;;25.90;11.45;;;;;;;10.02;100.00;98295.72;5106879;28;20027;-83
2023/10/21 00:25:21;;;;;;;25.63;12.07;;;;;;;10.02;100.00;98292.19;5105063;28;20025;-83
2023/10/21 00:27:46;;;;;;;26.00;12.10;;;;;;;10.04;100.00;98301.78;5108281;28;20028;-82
2023/10/21 00:30:13;;;;;;;24.70;11.65;;;;;;;10.06;100.00;98307.03;5104796;28;20032;-83
2023/10/21 00:32:38;;;;;;;27.13;12.05;;;;;;;10.06;100.00;98307.91;5107557;28;20107;-74
2023/10/21 00:35:04;;;;;;;26.63;11.90;;;;;;;10.08;100.00;98315.78;5105224;28;20036;-74
2023/10/21 00:37:30;;;;;;;25.08;11.82;;;;;;;10.10;100.00;98314.78;5106076;28;20070;-74
2023/10/21 00:39:55;;;;;;;27.00;12.38;;;;;;;10.11;100.00;98327.06;5106917;27;20055;-74
2023/10/21 00:42:20;;;;;;;28.23;12.10;;;;;;;10.13;100.00;98327.03;5104746;28;20024;-74
2023/10/21 00:44:46;;;;;;;28.33;12.55;;;;;;;10.10;100.00;98330.63;5107475;27;20040;-74
2023/10/21 00:47:11;;;;;;;25.83;12.27;;;;;;;10.06;100.00;98326.38;5103151;28;20548;-73
2023/10/21 00:49:37;;;;;;;26.90;11.98;;;;;;;10.08;100.00;98335.09;5106716;28;20424;-74
2023/10/21 00:52:04;;;;;;;25.58;11.68;;;;;;;10.10;100.00;98345.59;5105346;28;20109;-74
2023/10/21 00:54:29;;;;;;;27.10;12.35;;;;;;;10.11;100.00;98350.84;5104567;28;20040;-73
2023/10/21 00:56:54;;;;;;;27.13;11.75;;;;;;;10.12;100.00;98338.50;5106442;28;20433;-73
2023/10/21 00:59:20;;;;;;;26.73;12.50;;;;;;;10.11;100.00;98352.63;5104257;28;20489;-72
2023/10/21 01:01:46;;;;;;;27.75;11.77;;;;;;;10.08;100.00;98350.94;5107546;27;20024;-73
2023/10/21 01:04:13;;;;;;;25.13;11.77;;;;;;;10.11;100.00;98350.84;5103817;28;20101;-73
2023/10/21 01:06:39;;;;;;;27.38;12.23;;;;;;;10.09;100.00;98355.31;5106615;28;20070;-74
2023/10/21 01:09:04;;;;;;;26.90;11.50;;;;;;;10.05;100.00;98364.25;5104936;28;20078;-73
2023/10/21 01:11:30;;;;;;;28.08;11.80;;;;;;;10.05;100.00;98360.75;5103997;28;20028;-74
2023/10/21 01:13:56;;;;;;;26.05;11.98;;;;;;;10.05;100.00;98360.75;5105904;27;20031;-75
2023/10/21 01:16:22;;;;;;;25.83;11.95;;;;;;;10.07;100.00;98366.81;5104221;28;20024;-74
2023/10/21 01:18:48;;;;;;;25.92;12.18;;;;;;;10.05;100.00;98360.75;5107065;28;20024;-74
2023/10/21 01:21:13;;;;;;;26.40;12.43;;;;;;;10.05;100.00;98369.53;5099440;28;20130;-74
2023/10/21 01:23:39;;;;;;;26.05;12.93;;;;;;;10.07;100.00;98364.19;5106534;28;20080;-74
2023/10/21 01:26:05;;;;;;;25.67;12.60;;;;;;;10.06;100.00;98365.97;5103575;28;20075;-80
2023/10/21 01:28:32;;;;;;;27.92;13.10;;;;;;;10.11;100.00;98374.59;5086855;28;20363;-81
2023/10/21 01:30:58;;;;;;;29.85;13.30;;;;;;;10.17;100.00;98385.88;5105384;27;20587;-78
2023/10/21 01:33:24;;;;;;;26.50;12.77;;;;;;;10.19;100.00;98386.69;5103916;28;20051;-81
2023/10/21 01:35:49;;;;;;;27.77;12.95;;;;;;;10.20;100.00;98383.97;5106588;28;20465;-80
2023/10/21 01:38:15;;;;;;;26.15;12.65;;;;;;;10.22;100.00;98392.72;5103429;28;20089;-78
2023/10/21 01:40:40;;;;;;;26.67;12.23;;;;;;;10.29;100.00;98391.63;5104978;28;20438;-82
2023/10/21 01:43:05;;;;;;;26.42;12.57;;;;;;;10.33;100.00;98394.16;5102971;28;20093;-82
2023/10/21 01:45:34;;;;;;;25.55;11.77;;;;;;;10.34;100.00;98393.25;5104670;28;20058;-82
2023/10/21 01:48:00;;;;;;;25.83;12.05;;;;;;;10.36;100.00;98399.34;5104805;28;20123;-82
2023/10/21 01:50:25;;;;;;;25.77;11.82;;;;;;;10.36;100.00;98394.94;5104141;28;20103;-82
2023/10/21 01:52:50;;;;;;;26.80;11.75;;;;;;;10.40;100.00;98396.56;5105797;28;20031;-82
2023/10/21 01:55:16;;;;;;;26.75;11.80;;;;;;;10.40;100.00;98401.84;5102754;28;20039;-82
2023/10/21 01:57:41;;;;;;;24.73;11.60;;;;;;;10.41;100.00;98405.34;5106390;28;20106;-82
2023/10/21 02:00:10;;;;;;;25.23;11.88;;;;;;;10.39;100.00;98410.66;5103592;28;20382;-82
2023/10/21 02:02:36;;;;;;;25.92;12.13;;;;;;;10.37;100.00;98398.41;5104953;28;20032;-82
2023/10/21 02:05:06;;;;;;;25.40;11.75;;;;;;;10.39;100.00;98405.38;5104369;28;20107;-74
2023/10/21 02:07:35;;;;;;;25.63;11.40;;;;;;;10.38;100.00;98414.25;5104200;28;20114;-74
2023/10/21 02:10:01;;;;;;;25.73;12.13;;;;;;;10.36;100.00;98421.34;5104099;28;20055;-73
2023/10/21 02:12:29;;;;;;;26.45;11.93;;;;;;;10.35;100.00;98421.38;5103802;28;20435;-72
2023/10/21 02:14:54;;;;;;;25.30;11.85;;;;;;;10.32;100.00;98421.47;5105044;28;20035;-72
2023/10/21 02:17:19;;;;;;;25.33;12.07;;;;;;;10.32;100.00;98422.31;5102540;28;20081;-73
2023/10/21 02:19:45;;;;;;;26.75;11.38;;;;;;;10.32;100.00;98430.25;5106143;28;20028;-72
2023/10/21 02:22:10;;;;;;;25.33;12.15;;;;;;;10.30;100.00;98432.06;5102559;28;20049;-73
2023/10/21 02:24:36;;;;;;;25.88;11.90;;;;;;;10.29;100.00;98440.91;5104696;28;20035;-72
2023/10/21 02:27:02;;;;;;;27.05;12.52;;;;;;;10.28;100.00;98444.44;5104092;28;20028;-73
2023/10/21 02:29:29;;;;;;;25.42;12.10;;;;;;;10.26;100.00;98448.94;5103654;28;20059;-74
2023/10/21 02:31:55;;;;;;;27.83;12.48;;;;;;;10.25;100.00;98449.84;5104835;28;20477;-74
2023/10/21 02:34:20;;;;;;;25.63;12.63;;;;;;;10.23;100.00;98451.66;5101178;28;20032;-75
2023/10/21 02:36:47;;;;;;;28.45;12.93;;;;;;;10.21;100.00;98456.16;5105654;28;20031;-75
2023/10/21 02:39:13;;;;;;;28.27;12.65;;;;;;;10.20;100.00;98454.41;5101345;28;20024;-75
2023/10/21 02:41:38;;;;;;;25.80;12.75;;;;;;;10.18;100.00;98458.88;5104752;28;20089;-74
2023/10/21 02:44:04;;;;;;;26.80;12.57;;;;;;;10.18;100.00;98454.47;5103038;28;20039;-74
2023/10/21 02:46:30;;;;;;;27.33;13.02;;;;;;;10.11;100.00;98451.16;5103853;28;20051;-74
2023/10/21 02:48:55;;;;;;;26.35;12.30;;;;;;;10.15;100.00;98453.69;5103297;28;20422;-74
2023/10/21 02:51:20;;;;;;;26.25;12.32;;;;;;;10.15;100.00;98453.69;5102137;28;20031;-73
2023/10/21 02:53:46;;;;;;;26.58;12.82;;;;;;;10.15;100.00;98464.25;5105280;28;20031;-72
2023/10/21 02:56:13;;;;;;;29.23;13.57;;;;;;;10.13;100.00;98469.56;5102192;28;20169;-82
2023/10/21 02:58:39;;;;;;;26.42;12.38;;;;;;;10.10;100.00;98475.81;5104296;28;20024;-81
2023/10/21 03:01:16;;;;;;;26.80;12.73;;;;;;;10.08;100.00;98475.00;5102987;28;20558;-82
2023/10/21 03:03:42;;;;;;;26.48;12.43;;;;;;;10.08;100.00;98485.56;5104806;28;20034;-82
2023/10/21 03:06:08;;;;;;;26.38;12.85;;;;;;;10.09;100.00;98483.78;5102286;28;20031;-82
2023/10/21 03:08:37;;;;;;;28.30;12.60;;;;;;;10.08;100.00;98490.00;5103501;28;20024;-82
2023/10/21 03:11:03;;;;;;;26.67;12.73;;;;;;;10.09;100.00;98489.94;5103098;28;20028;-82
2023/10/21 03:13:30;;;;;;;26.52;12.75;;;;;;;10.17;100.00;98494.13;5102847;28;20231;-80
2023/10/21 03:15:56;;;;;;;27.30;12.38;;;;;;;10.19;100.00;98492.28;5103779;28;20034;-81
2023/10/21 03:18:21;;;;;;;34.53;12.95;;;;;;;10.20;100.00;98494.03;5080612;28;20115;-81
2023/10/21 03:20:50;;;;;;;25.73;12.20;;;;;;;10.19;100.00;98493.13;5104917;28;20404;-81
2023/10/21 03:23:15;;;;;;;26.40;12.45;;;;;;;10.21;100.00;98495.75;5097151;28;20020;-82
2023/10/21 03:25:40;;;;;;;27.63;12.52;;;;;;;10.19;100.00;98501.06;5104469;28;20077;-79
2023/10/21 03:28:06;;;;;;;25.80;11.98;;;;;;;10.20;100.00;98504.59;5102264;28;20038;-82
2023/10/21 03:30:31;;;;;;;26.38;12.23;;;;;;;10.22;100.00;98508.03;5102858;28;20036;-77
2023/10/21 03:32:56;;;;;;;25.92;12.23;;;;;;;10.17;100.00;98512.59;5103785;28;20470;-80
2023/10/21 03:35:22;;;;;;;25.20;12.38;;;;;;;10.16;100.00;98524.91;5101307;28;20093;-80
2023/10/21 03:37:47;;;;;;;27.05;12.40;;;;;;;10.18;100.00;98522.22;5104678;28;20028;-82
2023/10/21 03:40:13;;;;;;;25.48;11.60;;;;;;;10.15;100.00;98517.94;5101250;28;20536;-81
2023/10/21 03:42:38;;;;;;;27.30;12.20;;;;;;;10.10;100.00;98520.69;5103641;28;20036;-82
2023/10/21 03:45:05;;;;;;;26.58;12.20;;;;;;;10.12;100.00;98534.72;5102534;28;20097;-80
2023/10/21 03:47:30;;;;;;;24.90;11.90;;;;;;;10.19;100.00;98534.53;5102471;28;20035;-82
2023/10/21 03:49:57;;;;;;;26.70;12.02;;;;;;;10.17;100.00;98537.22;5103583;28;20394;-82
2023/10/21 03:52:22;;;;;;;26.95;11.80;;;;;;;10.19;100.00;98538.00;5104661;28;20072;-81
2023/10/21 03:54:48;;;;;;;25.38;12.38;;;;;;;10.20;100.00;98546.81;5108568;28;20020;-82
2023/10/21 03:57:13;;;;;;;24.75;11.63;;;;;;;10.22;100.00;98540.59;5105192;28;20073;-75
2023/10/21 03:59:39;;;;;;;24.48;11.82;;;;;;;10.22;100.00;98555.56;5107855;28;20032;-76
2023/10/21 04:02:04;;;;;;;26.95;12.65;;;;;;;10.20;100.00;98552.97;5106413;28;20048;-75
2023/10/21 04:04:29;;;;;;;24.52;11.70;;;;;;;10.26;100.00;98562.47;5105014;28;20046;-76
2023/10/21 04:06:54;;;;;;;25.33;11.55;;;;;;;10.30;100.00;98561.47;5107941;28;20118;-75
2023/10/21 04:09:20;;;;;;;26.00;11.50;;;;;;;10.34;100.00;98571.06;5104883;28;20060;-73
2023/10/21 04:11:45;;;;;;;25.05;11.82;;;;;;;10.38;100.00;98566.53;5108385;28;20035;-75
2023/10/21 04:14:10;;;;;;;24.33;11.35;;;;;;;10.40;100.00;98576.16;5105373;28;20417;-74
2023/10/21 04:16:36;;;;;;;26.90;11.60;;;;;;;10.37;100.00;98580.66;5107079;28;20466;-73
2023/10/21 04:19:01;;;;;;;25.55;10.85;;;;;;;10.39;100.00;98581.47;5106662;28;20084;-73
2023/10/21 04:21:27;;;;;;;26.13;11.07;;;;;;;10.35;100.00;98593.91;5104480;28;20051;-73
2023/10/21 04:23:52;;;;;;;26.25;11.80;;;;;;;10.39;100.00;98589.41;5107649;28;20118;-73
2023/10/21 04:26:17;;;;;;;25.20;11.85;;;;;;;10.46;100.00;98598.88;5104910;28;20501;-72
2023/10/21 04:28:43;;;;;;;25.65;11.48;;;;;;;10.50;100.00;98602.28;5107787;28;20110;-72
2023/10/21 04:31:08;;;;;;;27.15;11.77;;;;;;;10.51;100.00;98602.22;5105427;28;20101;-75
2023/10/21 04:33:34;;;;;;;26.70;11.52;;;;;;;10.52;100.00;98598.69;5106591;28;20526;-75
2023/10/21 04:36:00;;;;;;;26.00;11.50;;;;;;;10.53;100.00;98603.06;5106286;28;20047;-74
2023/10/21 04:38:25;;;;;;;25.90;11.50;;;;;;;10.49;100.00;98606.69;5105049;28;20016;-75
2023/10/21 04:40:51;;;;;;;26.80;11.45;;;;;;;10.50;100.00;98619.00;5107692;28;20039;-74
2023/10/21 04:43:16;;;;;;;26.08;11.40;;;;;;;10.46;100.00;98612.94;5104306;28;20028;-75
2023/10/21 04:45:41;;;;;;;26.33;11.48;;;;;;;10.48;100.00;98620.81;5105589;28;20485;-75
2023/10/21 04:48:07;;;;;;;27.88;12.60;;;;;;;10.48;100.00;98625.25;5105532;28;20433;-73
2023/10/21 04:50:32;;;;;;;28.25;12.00;;;;;;;10.41;100.00;98619.25;5105882;28;20093;-75
2023/10/21 04:52:59;;;;;;;28.95;12.45;;;;;;;10.41;100.00;98621.91;5106681;28;20055;-74
2023/10/21 04:55:25;;;;;;;28.48;11.98;;;;;;;10.34;100.00;98629.16;5104735;28;20038;-74
2023/10/21 04:57:50;;;;;;;27.67;11.93;;;;;;;10.28;100.00;98646.03;5107344;28;20083;-74
2023/10/21 05:00:16;;;;;;;27.38;12.10;;;;;;;10.27;100.00;98643.44;5104098;28;20420;-82
2023/10/21 05:02:41;;;;;;;28.55;12.75;;;;;;;10.30;100.00;98643.34;5106118;28;20038;-82
2023/10/21 05:05:07;;;;;;;27.23;12.52;;;;;;;10.33;100.00;98640.59;5104950;27;20110;-83
2023/10/21 05:07:32;;;;;;;28.63;12.45;;;;;;;10.30;100.00;98657.38;5105607;28;20037;-83
2023/10/21 05:09:58;;;;;;;29.25;13.75;;;;;;;10.31;100.00;98660.91;5106009;28;20028;-82
2023/10/21 05:12:23;;;;;;;28.83;13.27;;;;;;;10.26;100.00;98650.47;5102621;28;20424;-82
2023/10/21 05:14:48;;;;;;;29.58;13.40;;;;;;;10.23;100.00;98652.34;5107242;28;20028;-82
2023/10/21 05:17:17;;;;;;;31.05;12.80;;;;;;;10.23;100.00;98654.97;5103672;28;20494;-81
2023/10/21 05:19:42;;;;;;;30.42;13.43;;;;;;;10.18;100.00;98660.41;5106645;28;20028;-82
2023/10/21 05:22:07;;;;;;;29.95;13.57;;;;;;;10.19;100.00;98666.53;5104622;28;20077;-82
2023/10/21 05:24:33;;;;;;;30.05;13.23;;;;;;;10.23;100.00;98674.31;5105510;28;20028;-83
2023/10/21 05:26:59;;;;;;;28.92;13.13;;;;;;;10.26;100.00;98668.94;5105622;28;20024;-83
2023/10/21 05:29:24;;;;;;;28.75;12.43;;;;;;;10.26;100.00;98679.50;5103949;28;20085;-82
2023/10/21 05:31:50;;;;;;;26.33;11.85;;;;;;;10.31;100.00;98682.03;5106900;27;20024;-81
2023/10/21 05:34:18;;;;;;;27.58;11.77;;;;;;;10.34;100.00;98684.63;5098982;28;20028;-82
2023/10/21 05:36:44;;;;;;;27.98;12.00;;;;;;;10.37;100.00;98689.81;5106448;28;20113;-80
2023/10/21 05:39:11;;;;;;;25.92;12.10;;;;;;;10.43;100.00;98686.13;5103883;28;20064;-82
2023/10/21 05:41:37;;;;;;;27.77;12.02;;;;;;;10.44;100.00;98688.72;5103938;28;20497;-74
2023/10/21 05:44:03;;;;;;;26.48;12.10;;;;;;;10.49;100.00;98690.38;5104909;28;20028;-74
2023/10/21 05:46:29;;;;;;;26.30;12.50;;;;;;;10.55;100.00;98696.31;5104121;28;20028;-74
2023/10/21 05:48:54;;;;;;;26.00;12.02;;;;;;;10.62;100.00;98697.03;5106194;28;20028;-72
2023/10/21 05:51:19;;;;;;;26.75;12.25;;;;;;;10.68;100.00;98703.91;5102960;28;20071;-74
2023/10/21 05:53:45;;;;;;;26.77;11.88;;;;;;;10.73;100.00;98713.41;5106147;28;20023;-74
2023/10/21 05:56:12;;;;;;;26.67;12.70;;;;;;;10.76;100.00;98701.88;5103801;28;20040;-74
2023/10/21 05:58:40;;;;;;;27.13;11.80;;;;;;;10.80;100.00;98717.63;5104984;28;20478;-76
2023/10/21 06:01:10;;;;;;;27.13;12.10;;;;;;;10.81;100.00;98715.81;5104142;28;20486;-75
2023/10/21 06:03:36;;;;;;;24.95;11.18;;;;;;;10.82;100.00;98718.41;5104745;28;20032;-75
2023/10/21 06:06:02;;;;;;;25.63;11.88;;;;;;;10.86;100.00;98731.53;5104797;28;20038;-74
2023/10/21 06:08:29;;;;;;;27.90;11.75;;;;;;;10.87;100.00;98738.56;5103573;28;20527;-75
2023/10/21 06:10:54;;;;;;;27.35;12.50;;;;;;;10.89;100.00;98742.00;5105586;28;20553;-75
2023/10/21 06:13:20;;;;;;;27.17;12.15;;;;;;;10.92;100.00;98749.84;5102360;28;20115;-74
2023/10/21 06:15:48;;;;;;;24.85;11.60;;;;;;;10.92;100.00;98749.84;5103700;28;20085;-74
2023/10/21 06:18:13;;;;;;;24.95;11.82;;;;;;;10.96;100.00;98756.78;5102965;28;20471;-76
2023/10/21 06:20:39;;;;;;;26.33;11.57;;;;;;;10.99;100.00;98759.31;5103766;28;20119;-74
2023/10/21 06:23:04;;;;;;;24.70;11.15;;;;;;;11.03;100.00;98768.91;5101415;28;20047;-72
2023/10/21 06:25:31;;;;;;;25.20;10.52;;;;;;;11.06;100.00;98771.44;5102746;28;20070;-74
2023/10/21 06:27:57;;;;;;;25.15;10.65;;;;;;;11.07;100.00;98783.75;5102587;28;20051;-74
2023/10/21 06:30:23;;;;;;;26.48;10.95;;;;;;;11.08;100.00;98787.25;5104180;28;20074;-73
2023/10/21 06:32:48;;;;;;;24.33;10.68;;;;;;;11.12;100.00;98796.84;5103433;28;20501;-82
2023/10/21 06:35:13;;;;;;;25.38;10.32;;;;;;;11.14;100.00;98798.53;5103139;28;20038;-81
2023/10/21 07:26:16;;;;;;;16.23;5.68;;;;;;;11.53;100.00;98929.63;5079891;27;20413;-77
2023/10/21 07:28:41;;;;;;;12.00;3.78;;;;;;;11.50;100.00;98930.59;5079624;28;20036;-80
2023/10/21 07:31:06;;;;;;;7.68;3.05;;;;;;;11.21;100.00;98947.28;5080208;28;20490;-77
2023/10/21 07:33:32;;;;;;;10.32;3.33;;;;;;;11.19;100.00;98940.34;5075110;28;20040;-80
2023/10/21 07:35:57;;;;;;;8.57;2.88;;;;;;;11.12;100.00;98961.63;5079782;28;20038;-79
2023/10/21 07:38:22;;;;;;;10.95;3.22;;;;;;;11.11;100.00;98962.56;5078527;28;20059;-76
2023/10/21 07:40:48;;;;;;;8.88;2.90;;;;;;;11.08;100.00;98964.41;5081316;28;20032;-79
2023/10/21 07:43:17;;;;;;;7.60;2.63;;;;;;;11.04;100.00;98971.59;5077687;28;20025;-76
2023/10/21 07:45:43;;;;;;;9.77;2.90;;;;;;;11.05;100.00;98986.50;5074479;28;20029;-77
2023/10/21 07:48:10;;;;;;;10.48;2.92;;;;;;;11.12;100.00;98990.72;5081195;28;20067;-81
2023/10/21 07:50:36;;;;;;;9.63;2.78;;;;;;;11.15;100.00;98998.59;5076222;28;20036;-78
2023/10/21 07:53:01;;;;;;;9.32;3.00;;;;;;;11.24;100.00;99004.53;5079037;28;20032;-78
2023/10/21 07:55:28;;;;;;;9.38;2.80;;;;;;;11.21;100.00;99016.06;5077446;28;20032;-81
2023/10/21 07:57:54;;;;;;;8.75;2.90;;;;;;;11.12;100.00;99024.25;5075258;28;20028;-86
2023/10/21 08:00:19;;;;;;;8.48;2.70;;;;;;;11.08;100.00;99017.31;5078263;28;20020;-76
2023/10/21 08:02:45;;;;;;;10.93;2.90;;;;;;;11.04;100.00;99031.50;5079329;28;20033;-82
2023/10/21 08:05:10;;;;;;;8.15;2.80;;;;;;;11.09;100.00;99026.97;5079380;28;20519;-85
2023/10/21 08:07:37;;;;;;;6.78;2.70;;;;;;;11.05;100.00;99034.09;5077894;28;20032;-78
2023/10/21 08:10:05;;;;;;;6.88;2.55;;;;;;;11.09;100.00;99041.06;5079268;28;20489;-88
2023/10/21 08:12:34;;;;;;;9.77;3.10;;;;;;;11.23;100.00;99043.34;5077158;28;20506;-79
2023/10/21 08:15:10;;;;;;;7.07;2.50;;;;;;;11.33;100.00;99059.84;5073596;28;20068;-85
2023/10/21 08:17:36;;;;;;;7.22;2.60;;;;;;;11.34;100.00;99041.28;5074730;28;20094;-85
2023/10/21 08:20:02;;;;;;;8.75;2.60;;;;;;;11.43;100.00;99055.16;5080614;28;20028;-83
2023/10/21 08:22:28;;;;;;;11.93;2.88;;;;;;;11.75;100.00;99056.03;5072994;28;20127;-85
2023/10/21 08:24:53;;;;;;;7.93;2.50;;;;;;;11.98;100.00;99052.75;5079971;28;20439;-83
2023/10/21 08:27:19;;;;;;;8.43;2.47;;;;;;;12.07;100.00;99051.59;5064069;28;20115;-85
2023/10/21 08:29:45;;;;;;;8.45;2.40;;;;;;;12.27;100.00;99065.09;5064050;28;20029;-86
2023/10/21 08:32:10;;;;;;;8.52;2.40;;;;;;;12.51;100.00;99066.13;5065921;28;20032;-86
2023/10/21 08:34:36;;;;;;;6.53;2.20;;;;;;;12.79;100.00;99073.19;5063848;28;20112;-84
2023/10/21 08:37:03;;;;;;;6.60;2.08;;;;;;;12.73;100.00;99074.25;5066987;28;20024;-77
2023/10/21 08:39:28;;;;;;;9.43;2.10;;;;;;;12.71;100.00;99086.69;5063845;28;20040;-85
2023/10/21 08:41:54;;;;;;;3.80;1.80;;;;;;;12.66;100.00;99071.84;5066328;28;20032;-84
2023/10/21 08:44:22;;;;;;;5.50;1.90;;;;;;;12.51;100.00;99076.72;5064504;28;20115;-82
2023/10/21 08:46:49;;;;;;;7.68;2.00;;;;;;;12.42;100.00;99086.75;5065543;28;20075;-83
2023/10/21 08:49:18;;;;;;;5.70;2.00;;;;;;;12.35;100.00;99091.38;5064820;28;20025;-83
2023/10/21 08:51:46;;;;;;;5.97;1.83;;;;;;;12.40;100.00;99085.94;5065133;28;20056;-82
2023/10/21 08:54:12;;;;;;;7.10;2.00;;;;;;;12.26;100.00;99099.59;5064087;28;20028;-83
2023/10/21 08:56:37;;;;;;;5.07;1.92;;;;;;;12.26;100.00;99092.53;5063899;28;20048;-82
2023/10/21 08:59:03;;;;;;;7.07;2.05;;;;;;;12.34;100.00;99098.44;5066404;28;20379;-82
2023/10/21 09:01:29;;;;;;;9.38;1.80;;;;;;;12.35;100.00;99120.53;5061918;28;20043;-82
2023/10/21 09:03:56;;;;;;;9.40;1.95;;;;;;;12.40;100.00;99108.00;5065910;28;20068;-74
2023/10/21 09:06:22;;;;;;;6.15;1.80;;;;;;;12.45;100.00;99105.19;5063589;28;20020;-75
2023/10/21 09:08:48;;;;;;;6.90;1.80;;;;;;;12.55;100.00;99106.63;5065309;28;20111;-74
2023/10/21 09:11:19;;;;;;;4.90;2.00;;;;;;;12.88;100.00;99115.28;5064729;28;20059;-74
2023/10/21 09:13:45;;;;;;;4.28;1.90;;;;;;;13.09;100.00;99088.97;5064312;28;20548;-74
2023/10/21 09:16:22;;;;;;;7.47;2.08;;;;;;;13.42;100.00;99091.44;5064956;28;20105;-74
2023/10/21 09:19:07;;;;;;;8.68;1.90;;;;;;;13.55;100.00;99095.38;5064542;28;20422;-74
2023/10/21 09:21:34;;;;;;;7.07;1.80;;;;;;;13.42;100.00;99062.25;5059022;28;20037;-74
2023/10/21 09:24:02;;;;;;;6.28;1.80;;;;;;;13.14;100.00;99105.63;5065643;28;20035;-74
2023/10/21 09:26:36;;;;;;;8.05;2.10;;;;;;;13.14;100.00;99087.03;5062954;28;20442;-74
2023/10/21 09:29:11;;;;;;;5.40;1.80;;;;;;;13.05;100.00;99079.41;5059057;28;20056;-74
2023/10/21 09:31:48;;;;;;;7.75;2.10;;;;;;;13.16;100.00;99110.88;5059378;28;20016;-74
2023/10/21 09:34:24;;;;;;;5.65;1.90;;;;;;;13.27;100.00;99094.59;5064441;28;20025;-73
2023/10/21 09:36:54;;;;;;;8.90;2.13;;;;;;;13.28;100.00;99091.00;5061370;28;20017;-74
2023/10/21 09:39:21;;;;;;;6.60;2.00;;;;;;;13.59;100.00;99089.03;5064453;28;20033;-74
2023/10/21 09:41:47;;;;;;;6.78;1.90;;;;;;;13.57;100.00;99088.25;5062381;28;20025;-73
2023/10/21 09:44:14;;;;;;;9.27;2.00;;;;;;;13.81;100.00;99098.88;5064388;28;20025;-74
2023/10/21 09:46:40;;;;;;;7.10;1.98;;;;;;;13.78;100.00;99101.66;5063963;28;20039;-74
2023/10/21 09:49:06;;;;;;;8.25;2.10;;;;;;;14.20;100.00;99095.66;5063352;28;20403;-79
2023/10/21 09:51:36;;;;;;;5.80;2.00;;;;;;;14.18;100.00;99105.47;5064751;28;20016;-79
2023/10/21 09:54:10;;;;;;;7.22;2.10;;;;;;;14.13;100.00;99107.47;5062681;28;20119;-78
2023/10/21 09:56:37;;;;;;;8.15;1.95;;;;;;;14.16;100.00;99115.31;5062779;28;20201;-78
2023/10/21 09:59:05;;;;;;;10.73;2.08;;;;;;;14.32;100.00;99122.72;5062740;28;20033;-79
2023/10/21 10:01:31;;;;;;;10.88;2.10;;;;;;;14.27;100.00;99136.16;5064540;28;20032;-79
2023/10/21 10:04:01;;;;;;;11.32;2.13;;;;;;;14.32;100.00;99123.56;5062002;28;20040;-78
2023/10/21 10:06:28;;;;;;;7.50;1.92;;;;;;;14.58;100.00;99133.19;5065057;28;20039;-79
2023/10/21 10:08:55;;;;;;;6.78;1.80;;;;;;;15.02;100.00;99119.06;5061631;28;20047;-79
2023/10/21 10:11:24;;;;;;;7.90;2.10;;;;;;;15.34;100.00;99120.34;5063809;28;20032;-78
2023/10/21 10:13:49;;;;;;;9.93;2.15;;;;;;;16.10;100.00;99135.72;5061711;28;20032;-78
2023/10/21 10:16:41;;;;;;;7.43;1.90;;;;;;;15.97;100.00;99131.91;5064075;28;20476;-78
2023/10/21 10:19:09;;;;;;;8.70;2.17;;;;;;;15.68;100.00;99118.03;5060912;28;20029;-78
2023/10/21 10:21:35;;;;;;;9.73;2.00;;;;;;;15.45;100.00;99127.03;5063433;28;20048;-78
2023/10/21 10:24:04;;;;;;;10.35;2.28;;;;;;;15.24;100.00;99131.47;5061791;28;20064;-76
2023/10/21 10:26:33;;;;;;;10.43;2.05;;;;;;;15.53;100.00;99140.88;5064409;28;20028;-78
2023/10/21 10:29:15;;;;;;;10.18;2.00;;;;;;;16.18;100.00;99125.59;5061546;28;20028;-78
2023/10/21 10:31:44;;;;;;;15.35;2.28;;;;;;;16.79;100.00;99122.75;5062867;28;20028;-79
2023/10/21 10:34:10;;;;;;;7.38;2.00;;;;;;;17.28;100.00;99133.72;5061757;28;20095;-78
2023/10/21 10:36:35;;;;;;;11.38;2.10;;;;;;;18.10;100.00;99142.88;5063329;28;20025;-78
2023/10/21 10:39:04;;;;;;;8.10;1.90;;;;;;;18.52;100.00;99140.63;5061679;28;20132;-78
2023/10/21 10:41:29;;;;;;;9.68;2.30;;;;;;;18.89;100.00;99143.97;5064357;28;20112;-78
2023/10/21 10:44:01;;;;;;;10.13;2.10;;;;;;;18.77;100.00;99143.66;5061127;28;20064;-78
2023/10/21 10:46:28;;;;;;;9.57;2.10;;;;;;;18.87;100.00;99153.88;5057606;28;20082;-78
2023/10/21 10:48:54;;;;;;;13.98;2.20;;;;;;;17.63;100.00;99141.72;5064345;28;20032;-77
2023/10/21 10:51:23;;;;;;;10.90;2.00;;;;;;;17.46;100.00;99133.72;5060140;28;20029;-78
2023/10/21 10:53:56;;;;;;;9.65;2.13;;;;;;;17.18;100.00;99144.00;5063728;28;20025;-77
2023/10/21 10:56:22;;;;;;;8.10;2.20;;;;;;;17.89;100.00;99150.22;5061421;28;20028;-77
2023/10/21 10:58:48;;;;;;;13.27;2.10;;;;;;;18.59;100.00;99158.91;5063972;28;20035;-78
2023/10/21 11:01:21;;;;;;;12.07;2.10;;;;;;;18.44;100.00;99154.44;5062025;28;20028;-78
2023/10/21 11:03:57;;;;;;;11.15;2.30;;;;;;;17.35;100.00;99159.16;5063456;28;20035;-78
2023/10/21 11:06:23;;;;;;;9.80;2.10;;;;;;;17.09;100.00;99163.13;5056899;28;20028;-77
2023/10/21 11:08:49;;;;;;;10.73;2.35;;;;;;;16.81;100.00;99161.78;5062600;28;20459;-77
2023/10/21 11:11:15;;;;;;;10.23;2.20;;;;;;;17.39;100.00;99163.41;5061653;28;20025;-77
2023/10/21 11:13:42;;;;;;;12.52;2.30;;;;;;;17.36;100.00;99162.72;5061357;28;20037;-77
2023/10/21 11:16:08;;;;;;;9.55;2.10;;;;;;;16.95;100.00;99166.50;5062563;28;20025;-77
2023/10/21 11:18:34;;;;;;;13.60;2.42;;;;;;;16.62;100.00;99185.78;5061565;28;20083;-76
2023/10/21 11:21:00;;;;;;;10.38;2.03;;;;;;;16.43;100.00;99139.59;5064221;28;20094;-77
2023/10/21 11:23:28;;;;;;;12.80;2.45;;;;;;;16.58;100.00;99168.19;5060610;28;20487;-77
2023/10/21 11:25:56;;;;;;;10.63;2.15;;;;;;;17.15;100.00;99175.31;5059238;28;20127;-77
2023/10/21 11:28:22;;;;;;;10.70;2.20;;;;;;;17.66;100.00;99176.31;5064434;28;20025;-76
2023/10/21 11:30:48;;;;;;;12.43;2.42;;;;;;;17.01;100.00;99163.53;5061085;28;20021;-77
2023/10/21 11:33:15;;;;;;;13.15;2.10;;;;;;;16.54;100.00;99169.28;5061769;28;20033;-77
2023/10/21 11:35:44;;;;;;;13.43;2.20;;;;;;;16.48;100.00;99181.09;5062150;28;20032;-76
2023/10/21 11:38:11;;;;;;;9.00;2.05;;;;;;;16.27;100.00;99169.63;5062179;28;20029;-77
2023/10/21 11:40:37;;;;;;;12.20;2.08;;;;;;;16.70;100.00;99186.31;5062650;28;20028;-77
2023/10/21 11:43:06;;;;;;;12.60;2.22;;;;;;;17.44;100.00;99200.56;5061384;28;20029;-76
2023/10/21 11:45:32;;;;;;;13.77;2.30;;;;;;;17.64;100.00;99172.00;5063425;28;20047;-77
2023/10/21 11:47:59;;;;;;;15.38;2.50;;;;;;;17.37;100.00;99178.66;5059187;28;20024;-77
2023/10/21 11:50:25;;;;;;;13.82;2.50;;;;;;;17.57;100.00;99187.47;5064051;28;20037;-77
2023/10/21 11:52:53;;;;;;;9.13;2.45;;;;;;;17.10;100.00;99180.88;5060705;28;20029;-75
2023/10/21 11:55:38;;;;;;;13.57;2.30;;;;;;;16.42;100.00;99184.06;5063164;28;20039;-75
2023/10/21 12:07:26;;;;;;;11.68;2.30;;;;;;;16.28;100.00;99182.03;5041290;28;20087;-77
2023/10/21 12:25:15;;;;;;;15.07;2.58;;;;;;;16.04;100.00;99184.84;5059576;28;20047;-77